Wylde Swan — PIWS — position and weather

sailwx.info

Track history (hours):
 
Tides and Currents Weather Stations Pressure Air Temp Water Temp Dewpoint Dewpoint Depression Visibility Wind Speed Wind Dir Waves Ship Positions

Wylde Swan

Last reported at 2017-Feb-13 11:33 UTC. Time now 2017-Feb-22 17:28 UTC.
Position N 18°16' W 063°12'.
Warning: this ship's position is 9 days out of date.

Length 45 m; draft 3.3 m.

Type: Sailing vessel. MMSI: 244074000.

Date/timePositionNaut miles runAvg speedWind from/ knotsBaromVisibWave heightAir tempDewpointWater temp
2017-Feb-13 11:33N 18°16' W 063°12'7 6.4
2017-Feb-13 10:30N 18°10' W 063°11'7 6.7
2017-Feb-13 09:28N 18°03' W 063°10'7 6.7
2017-Feb-13 08:24N 17°57' W 063°05'6 7.1
2017-Feb-13 07:33N 17°53' W 063°01'43 5.1
2017-Feb-12 23:13N 17°18' W 062°34'4 4.9
2017-Feb-12 22:26N 17°15' W 062°33'  
2017-Feb-09 17:15N 17°17' W 062°44'38 3.4
2017-Feb-09 06:13N 17°49' W 063°04'3 4.8
2017-Feb-09 05:29N 17°52' W 063°04'4 4.2
2017-Feb-09 04:26N 17°57' W 063°04'4 4.9
2017-Feb-09 03:33N 18°01' W 063°06'5 4.8
2017-Feb-09 02:27N 18°04' W 063°10'4 3.7
2017-Feb-09 01:30N 18°04' W 063°06'0 0.0
2017-Feb-09 00:24N 18°04' W 063°06'0 0.0
2017-Feb-08 23:27N 18°04' W 063°06'0 0.0
2017-Feb-08 22:27N 18°04' W 063°06'0 0.0
2017-Feb-08 21:27N 18°04' W 063°06'0 0.0
2017-Feb-08 20:32N 18°04' W 063°06'0 0.0
2017-Feb-08 19:29N 18°04' W 063°06'0 0.0
2017-Feb-08 18:32N 18°04' W 063°06'0 0.0
2017-Feb-08 17:17N 18°04' W 063°06'0 0.0
2017-Feb-08 16:32N 18°04' W 063°06'0 0.0
2017-Feb-08 15:32N 18°04' W 063°06'0 0.0
2017-Feb-08 14:23N 18°04' W 063°06'0 0.0
2017-Feb-08 13:23N 18°04' W 063°06'0 0.0
2017-Feb-08 12:26N 18°04' W 063°06'0 0.0
2017-Feb-08 11:26N 18°04' W 063°06'0 0.0
2017-Feb-08 10:26N 18°04' W 063°06'0 0.0
2017-Feb-08 09:29N 18°04' W 063°06'0 0.0
2017-Feb-08 08:29N 18°04' W 063°06'0 0.0
2017-Feb-08 07:32N 18°04' W 063°06'0 0.0
2017-Feb-08 06:32N 18°04' W 063°06'0 0.0
2017-Feb-08 05:32N 18°04' W 063°06'0 0.0
2017-Feb-08 04:29N 18°04' W 063°06'0 0.0
2017-Feb-08 03:32N 18°04' W 063°06'0 0.0
2017-Feb-08 02:32N 18°04' W 063°06'0 0.0
2017-Feb-08 01:32N 18°04' W 063°06'0 0.0
2017-Feb-08 00:32N 18°04' W 063°06'0 0.0
2017-Feb-07 23:32N 18°04' W 063°06'0 0.0
2017-Feb-07 22:34N 18°04' W 063°06'0 0.0
2017-Feb-07 21:25N 18°04' W 063°06'0 0.0
2017-Feb-07 20:28N 18°04' W 063°06'0 0.0
2017-Feb-07 19:31N 18°04' W 063°06'0 0.0
2017-Feb-07 18:31N 18°04' W 063°06'0 0.0
2017-Feb-07 17:31N 18°04' W 063°06'0 0.0
2017-Feb-07 16:28N 18°04' W 063°06'0 0.0
2017-Feb-07 15:19N 18°04' W 063°06'0 0.0
2017-Feb-07 14:31N 18°04' W 063°06'0 0.0
2017-Feb-07 13:31N 18°04' W 063°06'0 0.0
2017-Feb-07 12:22N 18°04' W 063°06'0 0.0
2017-Feb-07 11:25N 18°04' W 063°06'0 0.0
2017-Feb-07 10:25N 18°04' W 063°06'0 0.0
2017-Feb-07 09:07N 18°04' W 063°06'0 0.0
2017-Feb-07 08:30N 18°04' W 063°06'0 0.0
2017-Feb-07 07:30N 18°04' W 063°06'0 0.0
2017-Feb-07 06:32N 18°04' W 063°06'0 0.0
2017-Feb-07 05:32N 18°04' W 063°06'0 0.0
2017-Feb-07 04:32N 18°04' W 063°06'0 0.0
2017-Feb-07 03:23N 18°04' W 063°06'0 0.0
2017-Feb-07 02:26N 18°04' W 063°06'0 0.0
2017-Feb-07 01:26N 18°04' W 063°06'0 0.0
2017-Feb-07 00:32N 18°04' W 063°06'0 0.0
2017-Feb-06 23:32N 18°04' W 063°06'0 0.0
2017-Feb-06 22:32N 18°04' W 063°06'0 0.0
2017-Feb-06 21:32N 18°04' W 063°06'0 0.0
2017-Feb-06 20:32N 18°04' W 063°06'1 0.6
2017-Feb-06 19:27N 18°05' W 063°06'0 0.1
2017-Feb-06 18:27N 18°05' W 063°06'0 0.1
2017-Feb-06 17:33N 18°05' W 063°06'3 1.8
2017-Feb-06 16:10N 18°07' W 063°06'2 3.7
2017-Feb-06 15:33N 18°05' W 063°05'0 0.2
2017-Feb-06 14:33N 18°05' W 063°05'0 0.0
2017-Feb-06 13:33N 18°05' W 063°05'0 0.0
2017-Feb-06 12:24N 18°05' W 063°05'0 0.0
2017-Feb-06 11:27N 18°05' W 063°05'0 0.0
2017-Feb-06 10:27N 18°05' W 063°05'0 0.0
2017-Feb-06 09:27N 18°05' W 063°05'0 0.0
2017-Feb-06 08:24N 18°05' W 063°05'0 0.0
2017-Feb-06 06:27N 18°05' W 063°05'0 0.0
2017-Feb-06 05:33N 18°05' W 063°05'0 0.0
2017-Feb-06 04:33N 18°05' W 063°05'0 0.0
2017-Feb-06 03:33N 18°05' W 063°05'0 0.0
2017-Feb-06 02:33N 18°05' W 063°05'0 0.0
2017-Feb-06 01:33N 18°05' W 063°05'0 0.0
2017-Feb-06 00:33N 18°05' W 063°05'0 0.0
2017-Feb-05 23:33N 18°05' W 063°05'0 0.0
2017-Feb-05 22:32N 18°05' W 063°05'0 0.0
2017-Feb-05 21:29N 18°05' W 063°05'0 0.0
2017-Feb-05 20:32N 18°05' W 063°05'0 0.0
2017-Feb-05 19:32N 18°05' W 063°05'0 0.0
2017-Feb-05 18:32N 18°05' W 063°05'0 0.0
2017-Feb-05 17:20N 18°05' W 063°05'0 0.0
2017-Feb-05 16:26N 18°05' W 063°05'0 0.0
2017-Feb-05 15:26N 18°05' W 063°05'0 0.0
2017-Feb-05 14:26N 18°05' W 063°05'0 0.0
2017-Feb-05 13:26N 18°05' W 063°05'0 0.0
2017-Feb-05 12:29N 18°05' W 063°05'0 0.2
2017-Feb-05 11:29N 18°05' W 063°05'1 1.0
2017-Feb-05 10:28N 18°04' W 063°06'0 0.0
2017-Feb-05 09:31N 18°04' W 063°06'0 0.0
2017-Feb-05 08:31N 18°04' W 063°06'0 0.0
2017-Feb-05 07:31N 18°04' W 063°06'0 0.0
2017-Feb-05 06:16N 18°04' W 063°06'0 0.0
2017-Feb-05 05:22N 18°04' W 063°06'0 0.0
2017-Feb-05 04:22N 18°04' W 063°06'0 0.0
2017-Feb-05 03:22N 18°04' W 063°06'0 0.0
2017-Feb-05 02:25N 18°04' W 063°06'0 0.0
2017-Feb-05 01:25N 18°04' W 063°06'0 0.0
2017-Feb-05 00:19N 18°04' W 063°06'0 0.0
2017-Feb-04 23:31N 18°04' W 063°06'0 0.0
2017-Feb-04 22:19N 18°04' W 063°06'0 0.0
2017-Feb-04 21:25N 18°04' W 063°06'0 0.0
2017-Feb-04 20:25N 18°04' W 063°06'0 0.0
2017-Feb-04 19:25N 18°04' W 063°06'0 0.0
2017-Feb-04 18:25N 18°04' W 063°06'0 0.0
2017-Feb-04 17:28N 18°04' W 063°06'0 0.0
2017-Feb-04 16:31N 18°04' W 063°06'0 0.0
2017-Feb-04 15:31N 18°04' W 063°06'0 0.0
2017-Feb-04 14:33N 18°04' W 063°06'0 0.0
2017-Feb-04 13:30N 18°04' W 063°06'0 0.0
2017-Feb-04 12:33N 18°04' W 063°06'0 0.0
2017-Feb-04 11:21N 18°04' W 063°06'0 0.0
2017-Feb-04 10:33N 18°04' W 063°06'0 0.0
2017-Feb-04 09:24N 18°04' W 063°06'0 0.0
2017-Feb-04 08:27N 18°04' W 063°06'0 0.0
2017-Feb-04 07:27N 18°04' W 063°06'0 0.0
2017-Feb-04 06:27N 18°04' W 063°06'0 0.0
2017-Feb-04 05:30N 18°04' W 063°06'0 0.0
2017-Feb-04 04:30N 18°04' W 063°06'0 0.0
2017-Feb-04 03:30N 18°04' W 063°06'0 0.0
2017-Feb-04 02:30N 18°04' W 063°06'0 0.0
2017-Feb-04 01:33N 18°04' W 063°06'0 0.0
2017-Feb-04 00:33N 18°04' W 063°06'0 0.0
2017-Feb-03 23:32N 18°04' W 063°06'0 0.0
2017-Feb-03 22:32N 18°04' W 063°06'0 0.0
2017-Feb-03 21:32N 18°04' W 063°06'0 0.0
2017-Feb-03 20:32N 18°04' W 063°06'0 0.0
2017-Feb-03 19:23N 18°04' W 063°06'0 0.0
2017-Feb-03 18:26N 18°04' W 063°06'1 0.7
2017-Feb-03 17:31N 18°05' W 063°06'0 0.0
2017-Feb-03 15:28N 18°05' W 063°06'2 1.9
2017-Feb-03 14:29N 18°06' W 063°08'2 2.1
2017-Feb-03 13:30N 18°08' W 063°07'  
Track history (hours):
 
Tides and Currents Weather Stations Pressure Air Temp Water Temp Dewpoint Dewpoint Depression Visibility Wind Speed Wind Dir Waves Ship Positions

Wylde Swan

Last reported at 2017-Feb-13 11:33 UTC. Time now 2017-Feb-22 17:28 UTC.
Position N 18°16' W 063°12'.
Warning: this ship's position is 9 days out of date.

Length 45 m; draft 3.3 m.

Type: Sailing vessel. MMSI: 244074000.

Date/timePositionNaut miles runAvg speedWind from/ knotsBaromVisibWave heightAir tempDewpointWater temp
2017-Feb-13 11:33N 18°16' W 063°12'7 6.4
2017-Feb-13 10:30N 18°10' W 063°11'7 6.7
2017-Feb-13 09:28N 18°03' W 063°10'7 6.7
2017-Feb-13 08:24N 17°57' W 063°05'6 7.1
2017-Feb-13 07:33N 17°53' W 063°01'43 5.1
2017-Feb-12 23:13N 17°18' W 062°34'4 4.9
2017-Feb-12 22:26N 17°15' W 062°33'  
2017-Feb-09 17:15N 17°17' W 062°44'38 3.4
2017-Feb-09 06:13N 17°49' W 063°04'3 4.8
2017-Feb-09 05:29N 17°52' W 063°04'4 4.2
2017-Feb-09 04:26N 17°57' W 063°04'4 4.9
2017-Feb-09 03:33N 18°01' W 063°06'5 4.8
2017-Feb-09 02:27N 18°04' W 063°10'4 3.7
2017-Feb-09 01:30N 18°04' W 063°06'0 0.0
2017-Feb-09 00:24N 18°04' W 063°06'0 0.0
2017-Feb-08 23:27N 18°04' W 063°06'0 0.0
2017-Feb-08 22:27N 18°04' W 063°06'0 0.0
2017-Feb-08 21:27N 18°04' W 063°06'0 0.0
2017-Feb-08 20:32N 18°04' W 063°06'0 0.0
2017-Feb-08 19:29N 18°04' W 063°06'0 0.0
2017-Feb-08 18:32N 18°04' W 063°06'0 0.0
2017-Feb-08 17:17N 18°04' W 063°06'0 0.0
2017-Feb-08 16:32N 18°04' W 063°06'0 0.0
2017-Feb-08 15:32N 18°04' W 063°06'0 0.0
2017-Feb-08 14:23N 18°04' W 063°06'0 0.0
2017-Feb-08 13:23N 18°04' W 063°06'0 0.0
2017-Feb-08 12:26N 18°04' W 063°06'0 0.0
2017-Feb-08 11:26N 18°04' W 063°06'0 0.0
2017-Feb-08 10:26N 18°04' W 063°06'0 0.0
2017-Feb-08 09:29N 18°04' W 063°06'0 0.0
2017-Feb-08 08:29N 18°04' W 063°06'0 0.0
2017-Feb-08 07:32N 18°04' W 063°06'0 0.0
2017-Feb-08 06:32N 18°04' W 063°06'0 0.0
2017-Feb-08 05:32N 18°04' W 063°06'0 0.0
2017-Feb-08 04:29N 18°04' W 063°06'0 0.0
2017-Feb-08 03:32N 18°04' W 063°06'0 0.0
2017-Feb-08 02:32N 18°04' W 063°06'0 0.0
2017-Feb-08 01:32N 18°04' W 063°06'0 0.0
2017-Feb-08 00:32N 18°04' W 063°06'0 0.0
2017-Feb-07 23:32N 18°04' W 063°06'0 0.0
2017-Feb-07 22:34N 18°04' W 063°06'0 0.0
2017-Feb-07 21:25N 18°04' W 063°06'0 0.0
2017-Feb-07 20:28N 18°04' W 063°06'0 0.0
2017-Feb-07 19:31N 18°04' W 063°06'0 0.0
2017-Feb-07 18:31N 18°04' W 063°06'0 0.0
2017-Feb-07 17:31N 18°04' W 063°06'0 0.0
2017-Feb-07 16:28N 18°04' W 063°06'0 0.0
2017-Feb-07 15:19N 18°04' W 063°06'0 0.0
2017-Feb-07 14:31N 18°04' W 063°06'0 0.0
2017-Feb-07 13:31N 18°04' W 063°06'0 0.0
2017-Feb-07 12:22N 18°04' W 063°06'0 0.0
2017-Feb-07 11:25N 18°04' W 063°06'0 0.0
2017-Feb-07 10:25N 18°04' W 063°06'0 0.0
2017-Feb-07 09:07N 18°04' W 063°06'0 0.0
2017-Feb-07 08:30N 18°04' W 063°06'0 0.0
2017-Feb-07 07:30N 18°04' W 063°06'0 0.0
2017-Feb-07 06:32N 18°04' W 063°06'0 0.0
2017-Feb-07 05:32N 18°04' W 063°06'0 0.0
2017-Feb-07 04:32N 18°04' W 063°06'0 0.0
2017-Feb-07 03:23N 18°04' W 063°06'0 0.0
2017-Feb-07 02:26N 18°04' W 063°06'0 0.0
2017-Feb-07 01:26N 18°04' W 063°06'0 0.0
2017-Feb-07 00:32N 18°04' W 063°06'0 0.0
2017-Feb-06 23:32N 18°04' W 063°06'0 0.0
2017-Feb-06 22:32N 18°04' W 063°06'0 0.0
2017-Feb-06 21:32N 18°04' W 063°06'0 0.0
2017-Feb-06 20:32N 18°04' W 063°06'1 0.6
2017-Feb-06 19:27N 18°05' W 063°06'0 0.1
2017-Feb-06 18:27N 18°05' W 063°06'0 0.1
2017-Feb-06 17:33N 18°05' W 063°06'3 1.8
2017-Feb-06 16:10N 18°07' W 063°06'2 3.7
2017-Feb-06 15:33N 18°05' W 063°05'0 0.2
2017-Feb-06 14:33N 18°05' W 063°05'0 0.0
2017-Feb-06 13:33N 18°05' W 063°05'0 0.0
2017-Feb-06 12:24N 18°05' W 063°05'0 0.0
2017-Feb-06 11:27N 18°05' W 063°05'0 0.0
2017-Feb-06 10:27N 18°05' W 063°05'0 0.0
2017-Feb-06 09:27N 18°05' W 063°05'0 0.0
2017-Feb-06 08:24N 18°05' W 063°05'0 0.0
2017-Feb-06 06:27N 18°05' W 063°05'0 0.0
2017-Feb-06 05:33N 18°05' W 063°05'0 0.0
2017-Feb-06 04:33N 18°05' W 063°05'0 0.0
2017-Feb-06 03:33N 18°05' W 063°05'0 0.0
2017-Feb-06 02:33N 18°05' W 063°05'0 0.0
2017-Feb-06 01:33N 18°05' W 063°05'0 0.0
2017-Feb-06 00:33N 18°05' W 063°05'0 0.0
2017-Feb-05 23:33N 18°05' W 063°05'0 0.0
2017-Feb-05 22:32N 18°05' W 063°05'0 0.0
2017-Feb-05 21:29N 18°05' W 063°05'0 0.0
2017-Feb-05 20:32N 18°05' W 063°05'0 0.0
2017-Feb-05 19:32N 18°05' W 063°05'0 0.0
2017-Feb-05 18:32N 18°05' W 063°05'0 0.0
2017-Feb-05 17:20N 18°05' W 063°05'0 0.0
2017-Feb-05 16:26N 18°05' W 063°05'0 0.0
2017-Feb-05 15:26N 18°05' W 063°05'0 0.0
2017-Feb-05 14:26N 18°05' W 063°05'0 0.0
2017-Feb-05 13:26N 18°05' W 063°05'0 0.0
2017-Feb-05 12:29N 18°05' W 063°05'0 0.2
2017-Feb-05 11:29N 18°05' W 063°05'1 1.0
2017-Feb-05 10:28N 18°04' W 063°06'0 0.0
2017-Feb-05 09:31N 18°04' W 063°06'0 0.0
2017-Feb-05 08:31N 18°04' W 063°06'0 0.0
2017-Feb-05 07:31N 18°04' W 063°06'0 0.0
2017-Feb-05 06:16N 18°04' W 063°06'0 0.0
2017-Feb-05 05:22N 18°04' W 063°06'0 0.0
2017-Feb-05 04:22N 18°04' W 063°06'0 0.0
2017-Feb-05 03:22N 18°04' W 063°06'0 0.0
2017-Feb-05 02:25N 18°04' W 063°06'0 0.0
2017-Feb-05 01:25N 18°04' W 063°06'0 0.0
2017-Feb-05 00:19N 18°04' W 063°06'0 0.0
2017-Feb-04 23:31N 18°04' W 063°06'0 0.0
2017-Feb-04 22:19N 18°04' W 063°06'0 0.0
2017-Feb-04 21:25N 18°04' W 063°06'0 0.0
2017-Feb-04 20:25N 18°04' W 063°06'0 0.0
2017-Feb-04 19:25N 18°04' W 063°06'0 0.0
2017-Feb-04 18:25N 18°04' W 063°06'0 0.0
2017-Feb-04 17:28N 18°04' W 063°06'0 0.0
2017-Feb-04 16:31N 18°04' W 063°06'0 0.0
2017-Feb-04 15:31N 18°04' W 063°06'0 0.0
2017-Feb-04 14:33N 18°04' W 063°06'0 0.0
2017-Feb-04 13:30N 18°04' W 063°06'0 0.0
2017-Feb-04 12:33N 18°04' W 063°06'0 0.0
2017-Feb-04 11:21N 18°04' W 063°06'0 0.0
2017-Feb-04 10:33N 18°04' W 063°06'0 0.0
2017-Feb-04 09:24N 18°04' W 063°06'0 0.0
2017-Feb-04 08:27N 18°04' W 063°06'0 0.0
2017-Feb-04 07:27N 18°04' W 063°06'0 0.0
2017-Feb-04 06:27N 18°04' W 063°06'0 0.0
2017-Feb-04 05:30N 18°04' W 063°06'0 0.0
2017-Feb-04 04:30N 18°04' W 063°06'0 0.0
2017-Feb-04 03:30N 18°04' W 063°06'0 0.0
2017-Feb-04 02:30N 18°04' W 063°06'0 0.0
2017-Feb-04 01:33N 18°04' W 063°06'0 0.0
2017-Feb-04 00:33N 18°04' W 063°06'0 0.0
2017-Feb-03 23:32N 18°04' W 063°06'0 0.0
2017-Feb-03 22:32N 18°04' W 063°06'0 0.0
2017-Feb-03 21:32N 18°04' W 063°06'0 0.0
2017-Feb-03 20:32N 18°04' W 063°06'0 0.0
2017-Feb-03 19:23N 18°04' W 063°06'0 0.0
2017-Feb-03 18:26N 18°04' W 063°06'1 0.7
2017-Feb-03 17:31N 18°05' W 063°06'0 0.0
2017-Feb-03 15:28N 18°05' W 063°06'2 1.9
2017-Feb-03 14:29N 18°06' W 063°08'2 2.1
2017-Feb-03 13:30N 18°08' W 063°07'  

Dump ship's entire track history